Time;durP1;ratioP1;P1;durP2;ratioP2;P2;SDS_P1;SDS_P2;PMS_P1;PMS_P2;Temp;Humidity;BMP_temperature;BMP_pressure;BME280_temperature;BME280_humidity;BME280_pressure;Samples;Min_cycle;Max_cycle;Signal;HPM_P1;HPM_P2
2022/01/18 00:00:03;;;;;;;8.75;3.40;;;4.20;79.80;;;3.17;67.34;96134.16;5056221;28;20219;-81
2022/01/18 00:02:30;;;;;;;8.25;3.65;;;4.20;79.80;;;2.99;67.61;96128.56;5038762;28;20192;-81
2022/01/18 00:04:57;;;;;;;8.23;4.20;;;4.20;79.80;;;3.10;67.65;96140.75;5053003;28;20212;-81
2022/01/18 00:07:24;;;;;;;8.90;3.72;;;4.20;79.80;;;3.07;67.67;96137.56;5033665;28;20197;-81
2022/01/18 00:09:52;;;;;;;10.05;3.50;;;4.20;79.70;;;3.02;67.59;96138.69;5017047;28;20201;-81
2022/01/18 00:12:43;;;;;;;6.72;3.88;;;4.10;79.70;;;2.97;67.34;96134.81;5025768;28;20314;-80
2022/01/18 00:18:06;;;;;;;8.95;3.60;;;4.10;79.50;;;2.93;67.49;96161.88;5049595;28;20284;-80
2022/01/18 00:23:45;;;;;;;5.93;3.05;;;4.00;79.30;;;2.76;67.53;96163.13;5052780;28;20196;-82
2022/01/18 00:26:13;;;;;;;6.35;3.50;;;4.00;79.20;;;2.64;67.13;96163.09;5033513;28;20300;-82
2022/01/18 00:28:42;;;;;;;10.40;3.50;;;3.90;79.00;;;2.62;66.87;96171.91;5050301;28;20204;-82
2022/01/18 00:36:54;;;;;;;6.97;3.03;;;3.70;78.70;;;2.24;67.00;96171.13;5048504;28;20678;-83
2022/01/18 00:39:21;;;;;;;7.35;2.70;;;3.60;78.50;;;2.22;66.97;96191.94;5051672;28;20184;-83
2022/01/18 00:41:49;;;;;;;8.15;3.58;;;3.50;78.50;;;2.12;66.78;96183.16;5034811;28;20220;-84
2022/01/18 00:44:18;;;;;;;7.60;3.17;;;3.50;78.60;;;2.08;66.87;96189.50;5053749;28;20243;-83
2022/01/18 00:46:45;;;;;;;7.07;2.83;;;3.40;78.50;;;2.01;67.03;96198.63;5033195;28;20733;-83
2022/01/18 00:49:14;;;;;;;6.18;2.97;;;3.40;78.60;;;1.91;66.81;96198.44;5035929;28;20693;-83
2022/01/18 00:51:45;;;;;;;9.23;3.60;;;3.30;78.60;;;1.88;66.84;96193.47;5020032;28;20228;-82
2022/01/18 00:54:21;;;;;;;7.38;3.13;;;3.20;78.60;;;1.82;67.10;96192.16;5052455;28;20669;-84
2022/01/18 00:56:52;;;;;;;7.75;3.20;;;3.10;78.60;;;1.74;66.68;96197.81;5054775;28;20739;-83
2022/01/18 00:59:21;;;;;;;8.63;3.05;;;3.00;78.60;;;1.67;66.92;96203.53;5035880;28;20592;-84
2022/01/18 01:01:49;;;;;;;9.18;3.28;;;3.00;78.60;;;1.62;67.12;96214.19;5044844;28;20235;-84
2022/01/18 01:04:18;;;;;;;10.10;3.25;;;3.00;78.70;;;1.60;67.22;96219.47;5053524;28;20560;-86
2022/01/18 01:06:45;;;;;;;10.05;3.22;;;2.90;78.70;;;1.58;66.96;96223.09;5053666;28;20247;-84
2022/01/18 01:09:12;;;;;;;8.40;3.60;;;2.80;78.60;;;1.49;66.61;96215.94;5043058;28;20396;-85
2022/01/18 01:11:40;;;;;;;7.38;3.33;;;2.80;78.60;;;1.50;66.88;96233.13;5032857;28;20252;-85
2022/01/18 01:14:15;;;;;;;6.32;2.75;;;2.80;78.70;;;1.42;67.12;96237.03;5001033;28;20192;-86
2022/01/18 01:16:59;;;;;;;10.10;3.70;;;2.70;78.70;;;1.38;67.11;96230.44;5020600;28;20225;-85
2022/01/18 01:36:18;;;;;;;7.60;3.22;;;2.40;78.60;;;1.03;67.31;96256.00;5045175;28;20219;-85
2022/01/18 01:44:42;;;;;;;9.63;2.97;;;2.20;78.50;;;0.90;67.36;96240.47;5035837;28;20207;-85
2022/01/18 01:47:13;;;;;;;7.78;3.30;;;2.20;78.70;;;0.93;67.48;96266.94;5037049;28;20207;-86
2022/01/18 01:49:40;;;;;;;10.68;3.03;;;2.20;78.80;;;0.93;67.39;96256.59;5019466;28;20223;-85
2022/01/18 01:52:10;;;;;;;7.75;2.95;;;2.20;79.00;;;0.91;67.75;96244.72;5036239;28;20297;-85
2022/01/18 01:54:39;;;;;;;6.05;2.60;;;2.10;79.00;;;0.91;67.03;96240.34;5052311;28;20210;-85
2022/01/18 01:57:07;;;;;;;8.30;3.15;;;2.10;78.90;;;0.91;67.02;96240.34;5049059;28;20215;-86
2022/01/18 01:59:36;;;;;;;8.95;2.83;;;2.10;78.80;;;0.82;66.89;96240.97;5048565;28;20215;-85
2022/01/18 02:02:04;;;;;;;9.20;3.10;;;2.10;78.70;;;0.83;67.34;96247.78;5035699;28;20234;-86
2022/01/18 02:04:32;;;;;;;6.90;2.75;;;2.10;78.80;;;0.83;67.26;96257.28;5052334;28;20200;-85
2022/01/18 02:07:00;;;;;;;8.32;2.85;;;2.10;78.80;;;0.80;67.14;96255.72;5018659;28;20657;-85
2022/01/18 02:09:28;;;;;;;8.95;2.90;;;2.00;78.80;;;0.74;66.93;96251.78;5034574;28;20254;-85
2022/01/18 02:11:56;;;;;;;10.40;3.33;;;2.00;78.90;;;0.76;67.13;96259.44;5019365;28;20311;-86
2022/01/18 02:14:26;;;;;;;11.10;3.20;;;2.00;78.90;;;0.72;67.59;96251.06;5046592;28;20196;-86
2022/01/18 02:22:26;;;;;;;7.47;3.15;;;1.90;78.70;;;0.64;67.53;96248.94;5038200;28;20638;-86
2022/01/18 02:24:54;;;;;;;7.35;3.50;;;1.90;78.80;;;0.61;67.24;96245.72;5035472;28;20990;-85
2022/01/18 02:27:21;;;;;;;7.55;3.00;;;1.90;78.90;;;0.64;67.10;96259.28;5052163;28;20230;-86
2022/01/18 02:29:48;;;;;;;6.85;3.08;;;1.90;78.90;;;0.63;67.28;96252.47;5019093;28;20231;-85
2022/01/18 02:32:15;;;;;;;13.95;3.67;;;1.90;78.90;;;0.63;67.47;96247.31;5034745;28;20224;-85
2022/01/18 02:34:42;;;;;;;9.27;3.30;;;1.80;78.80;;;0.58;67.71;96233.84;5035494;28;20196;-85
2022/01/18 02:37:11;;;;;;;6.57;3.22;;;1.80;78.90;;;0.65;67.49;96244.63;5035983;28;20204;-85
2022/01/18 02:39:39;;;;;;;10.07;3.30;;;1.80;78.80;;;0.66;67.47;96245.44;5051053;28;20192;-85
2022/01/18 02:42:08;;;;;;;11.20;3.38;;;1.80;78.80;;;0.67;67.25;96240.16;5051804;28;20204;-86
2022/01/18 02:44:36;;;;;;;5.35;3.10;;;1.90;78.90;;;0.66;66.89;96233.38;5051918;28;20680;-85
2022/01/18 02:47:05;;;;;;;5.82;3.20;;;1.80;78.80;;;0.63;66.98;96239.56;5052947;28;20200;-85
2022/01/18 02:49:33;;;;;;;11.52;3.67;;;1.80;78.80;;;0.61;66.85;96233.66;5038956;28;20617;-85
2022/01/18 02:52:02;;;;;;;6.80;3.53;;;1.80;78.80;;;0.52;66.87;96217.94;5038777;28;20212;-86
2022/01/18 02:54:30;;;;;;;10.38;3.85;;;1.80;78.80;;;0.58;67.10;96233.03;5037336;28;20246;-86
2022/01/18 02:57:01;;;;;;;10.68;3.78;;;1.80;78.80;;;0.53;66.82;96224.75;5035891;28;20255;-85
2022/01/18 02:59:45;;;;;;;11.07;4.15;;;1.80;78.80;;;0.53;67.17;96228.16;5026648;28;20322;-85
2022/01/18 03:05:24;;;;;;;11.23;4.28;;;1.70;78.90;;;0.49;67.18;96239.59;5060037;28;20686;-86
2022/01/18 03:07:51;;;;;;;8.00;3.60;;;1.70;78.80;;;0.47;66.81;96231.13;5035159;28;20246;-85
2022/01/18 03:10:18;;;;;;;6.88;3.20;;;1.70;78.70;;;0.49;67.02;96231.88;5041037;28;20759;-85
2022/01/18 03:12:46;;;;;;;6.32;3.47;;;1.70;78.80;;;0.42;66.88;96233.16;5047514;28;20303;-85
2022/01/18 03:15:14;;;;;;;9.00;4.10;;;1.70;78.70;;;0.51;67.04;96263.56;5071653;28;20243;-86
2022/01/18 03:17:41;;;;;;;13.77;4.18;;;1.70;78.80;;;0.43;67.03;96258.06;5039149;28;20200;-85
2022/01/18 03:20:12;;;;;;;9.93;4.03;;;1.70;78.90;;;0.47;67.43;96262.91;5038996;28;20270;-85
2022/01/18 03:22:40;;;;;;;9.68;3.78;;;1.70;78.90;;;0.50;66.94;96261.06;5036133;28;20197;-85
2022/01/18 03:25:25;;;;;;;7.72;4.05;;;1.60;78.80;;;0.46;67.10;96271.59;5002779;28;20220;-85
2022/01/18 03:28:05;;;;;;;6.78;3.72;;;1.60;78.70;;;0.46;67.03;96276.78;5038712;28;20214;-85
2022/01/18 03:30:42;;;;;;;9.50;3.60;;;1.70;78.70;;;0.39;66.71;96270.34;5056264;28;20262;-84
2022/01/18 03:33:16;;;;;;;12.77;4.68;;;1.70;78.80;;;0.34;67.44;96274.09;5035013;28;20310;-86
2022/01/18 03:35:45;;;;;;;9.10;4.75;;;1.70;79.00;;;0.38;67.33;96278.16;5034168;28;20219;-84
2022/01/18 03:38:15;;;;;;;8.82;4.50;;;1.60;79.00;;;0.44;67.10;96301.00;5038810;28;20647;-84
2022/01/18 03:40:43;;;;;;;14.30;4.82;;;1.60;78.90;;;0.46;67.16;96306.91;5018535;28;20217;-85
2022/01/18 03:43:12;;;;;;;11.35;4.70;;;1.60;79.70;;;0.45;67.17;96306.09;5018677;28;20292;-86
2022/01/18 03:45:47;;;;;;;12.80;5.20;;;1.70;79.00;;;0.44;66.95;96313.91;5013737;28;20311;-85
2022/01/18 03:48:28;;;;;;;11.80;5.45;;;1.60;79.10;;;0.43;67.20;96317.44;5038274;28;20200;-85
2022/01/18 03:50:56;;;;;;;10.02;4.97;;;1.70;79.20;;;0.51;67.43;96325.50;5038980;28;20226;-85
2022/01/18 03:53:24;;;;;;;11.82;5.53;;;1.70;79.30;;;0.54;67.36;96335.66;5038007;28;20227;-85
2022/01/18 03:55:53;;;;;;;9.10;5.18;;;1.60;79.20;;;0.57;67.75;96332.88;5024275;28;20222;-85
2022/01/18 03:58:20;;;;;;;11.20;5.57;;;1.70;79.50;;;0.64;67.54;96339.31;5041262;28;20602;-85
2022/01/18 04:00:47;;;;;;;11.65;5.28;;;1.70;79.60;;;0.66;67.98;96333.22;5033717;28;20223;-85
2022/01/18 04:03:16;;;;;;;11.40;5.13;;;1.80;79.70;;;0.75;67.63;96328.31;5018500;28;20220;-85
2022/01/18 04:05:43;;;;;;;10.95;5.85;;;1.80;79.70;;;0.80;68.20;96328.03;5022005;28;20218;-85
2022/01/18 04:08:10;;;;;;;10.57;6.50;;;1.80;79.90;;;0.85;68.00;96314.84;5054113;28;20279;-85
2022/01/18 04:10:37;;;;;;;11.05;6.22;;;1.90;80.10;;;0.96;68.09;96320.16;5054373;28;20281;-86
2022/01/18 04:13:05;;;;;;;12.15;5.93;;;1.90;80.00;;;0.98;67.82;96307.97;5038010;28;20313;-86
2022/01/18 04:15:34;;;;;;;11.43;6.80;;;1.90;80.00;;;1.05;67.91;96311.81;5053626;28;20223;-86
2022/01/18 04:26:56;;;;;;;14.18;6.50;;;2.20;80.20;;;1.20;67.84;96307.41;5053282;28;20221;-85
2022/01/18 04:28:59;;;;;;;10.15;6.90;;;2.20;80.10;;;1.32;68.18;96325.63;5038502;28;20201;-86
2022/01/18 04:31:28;;;;;;;12.13;6.90;;;2.20;80.20;;;1.36;68.15;96316.78;5037804;28;20215;-86
2022/01/18 04:33:57;;;;;;;14.15;7.35;;;2.30;80.30;;;1.39;67.95;96313.97;5054060;28;20318;-85
2022/01/18 04:36:26;;;;;;;13.20;7.90;;;2.30;80.40;;;1.49;68.32;96321.94;5042368;28;20220;-86
2022/01/18 04:38:55;;;;;;;14.18;6.57;;;2.40;80.40;;;1.54;68.06;96325.09;5038193;28;20204;-85
2022/01/18 04:41:27;;;;;;;12.82;6.38;;;2.40;80.40;;;1.59;67.83;96330.78;5017315;28;20246;-85
2022/01/18 04:49:14;;;;;;;9.60;5.72;;;2.60;80.40;;;1.74;67.79;96347.03;5022286;28;20193;-85
2022/01/18 04:51:45;;;;;;;11.15;6.13;;;2.60;80.40;;;1.78;67.73;96343.31;5053933;28;20698;-86
2022/01/18 04:54:13;;;;;;;13.00;6.35;;;2.70;80.50;;;1.86;67.46;96351.38;5037295;28;20218;-85
2022/01/18 04:59:11;;;;;;;10.85;6.07;;;2.70;80.40;;;1.94;67.80;96350.88;5033080;28;20271;-86
2022/01/18 05:01:42;;;;;;;13.77;7.00;;;2.80;80.50;;;1.96;68.31;96346.44;5016907;28;20216;-85
2022/01/18 05:04:10;;;;;;;9.25;6.22;;;2.90;80.70;;;2.03;67.67;96352.84;5016772;28;20207;-85
2022/01/18 05:06:38;;;;;;;14.43;7.20;;;2.90;80.60;;;2.06;68.11;96357.84;5019888;28;20281;-85
2022/01/18 05:09:08;;;;;;;15.02;7.15;;;2.90;80.70;;;2.08;68.45;96355.13;5036769;28;20226;-86
2022/01/18 05:11:45;;;;;;;13.93;6.72;;;3.00;80.70;;;2.12;67.88;96348.81;5036473;28;20272;-86
2022/01/18 05:17:04;;;;;;;12.68;6.35;;;3.00;80.60;;;2.14;67.66;96351.31;5053954;28;20223;-85
2022/01/18 05:24:34;;;;;;;15.60;6.53;;;3.10;80.50;;;2.21;67.79;96365.47;5053152;28;20235;-86
2022/01/18 05:27:03;;;;;;;12.95;5.90;;;3.20;80.50;;;2.24;68.35;96367.88;5036207;28;20309;-85
2022/01/18 05:29:30;;;;;;;11.52;5.72;;;3.20;80.50;;;2.24;67.94;96371.28;5035874;28;20254;-85
2022/01/18 05:31:58;;;;;;;10.10;5.07;;;3.20;80.50;;;2.22;67.58;96362.81;5036791;28;20220;-85
2022/01/18 05:34:25;;;;;;;9.52;5.50;;;3.20;80.40;;;2.32;67.72;96370.78;5023276;28;20219;-85
2022/01/18 05:36:53;;;;;;;13.60;6.38;;;3.20;80.30;;;2.33;67.27;96375.03;5036181;28;20740;-85
2022/01/18 05:39:21;;;;;;;15.85;6.45;;;3.30;80.40;;;2.33;68.00;96382.78;5031891;28;20200;-86
2022/01/18 05:41:49;;;;;;;14.85;6.43;;;3.30;80.50;;;2.33;68.03;96376.75;5008760;28;20230;-85
2022/01/18 05:44:17;;;;;;;11.45;5.47;;;3.30;80.40;;;2.29;67.74;96360.63;5036054;28;20199;-84
2022/01/18 05:46:46;;;;;;;10.48;5.65;;;3.30;80.40;;;2.38;67.49;96377.28;5052172;28;20229;-86
2022/01/18 05:49:14;;;;;;;12.40;5.72;;;3.30;80.40;;;2.39;67.96;96382.38;5036133;28;20204;-86
2022/01/18 05:51:41;;;;;;;16.40;6.72;;;3.30;80.40;;;2.36;67.95;96390.34;5040590;28;20224;-86
2022/01/18 05:54:09;;;;;;;15.48;7.30;;;3.40;80.50;;;2.38;67.98;96392.81;5052481;28;20298;-85
2022/01/18 05:56:36;;;;;;;13.77;6.22;;;3.40;80.60;;;2.37;67.94;96397.19;5051711;28;20224;-86
2022/01/18 05:59:06;;;;;;;11.93;6.32;;;3.40;80.60;;;2.40;67.88;96407.34;5036082;28;20196;-86
2022/01/18 06:01:38;;;;;;;14.43;6.30;;;3.40;80.50;;;2.43;67.88;96414.06;5018622;28;20224;-85
2022/01/18 06:04:13;;;;;;;16.15;6.32;;;3.40;80.50;;;2.43;67.82;96411.47;5035795;28;20413;-84
2022/01/18 06:06:54;;;;;;;13.75;6.47;;;3.40;80.50;;;2.43;67.78;96408.88;5023127;28;20310;-85
2022/01/18 06:09:23;;;;;;;11.05;6.43;;;3.40;80.40;;;2.46;67.76;96415.63;5050971;28;20282;-86
2022/01/18 06:11:51;;;;;;;16.15;6.22;;;3.40;80.40;;;2.42;67.62;96416.75;5048792;28;20270;-85
2022/01/18 06:14:18;;;;;;;17.40;7.10;;;3.40;80.40;;;2.39;68.21;96418.63;5032295;28;20224;-85
2022/01/18 06:16:46;;;;;;;13.88;6.25;;;3.40;80.40;;;2.40;68.02;96427.22;5016267;28;20221;-86
2022/01/18 06:19:13;;;;;;;13.48;6.00;;;3.40;81.10;;;2.40;67.76;96428.06;5044727;28;20192;-84
2022/01/18 06:21:41;;;;;;;16.40;6.53;;;3.40;80.40;;;2.43;67.59;96433.94;5050349;28;20220;-85
2022/01/18 06:24:09;;;;;;;11.35;6.18;;;3.50;80.40;;;2.46;67.80;96438.91;5047562;28;20201;-85
2022/01/18 06:26:57;;;;;;;12.63;6.63;;;3.40;80.30;;;2.48;67.79;96440.47;5038442;28;20216;-86
2022/01/18 06:29:24;;;;;;;15.40;6.18;;;3.50;80.30;;;2.42;67.89;96442.63;5052329;28;20291;-85
2022/01/18 06:31:52;;;;;;;15.13;6.43;;;3.50;80.30;;;2.43;67.50;96452.91;5047929;28;20568;-85
2022/01/18 06:34:20;;;;;;;11.77;6.50;;;3.50;80.20;;;2.44;67.59;96456.31;5022539;28;20307;-86
2022/01/18 06:36:48;;;;;;;15.70;6.47;;;3.40;80.10;;;2.36;67.42;96452.47;5042093;28;20717;-86
2022/01/18 06:39:18;;;;;;;17.92;6.85;;;3.40;80.20;;;2.31;67.68;96448.56;5049451;28;20206;-85
2022/01/18 06:41:46;;;;;;;18.90;7.43;;;3.40;80.20;;;2.38;67.73;96457.53;5052573;28;20224;-85
2022/01/18 06:44:16;;;;;;;15.32;7.28;;;3.40;81.00;;;2.39;67.94;96462.66;5034930;28;20740;-86
2022/01/18 06:46:45;;;;;;;15.68;6.97;;;3.40;80.20;;;2.37;67.67;96461.91;5035390;28;20216;-85
2022/01/18 06:49:12;;;;;;;14.85;7.32;;;3.40;80.20;;;2.31;67.45;96458.91;5035598;28;20208;-86
2022/01/18 06:51:40;;;;;;;15.43;6.20;;;3.40;80.20;;;2.40;67.53;96471.22;5051448;28;20223;-84
2022/01/18 06:54:13;;;;;;;15.60;7.15;;;3.40;80.20;;;2.36;67.59;96465.41;5035222;28;20760;-86
2022/01/18 06:56:44;;;;;;;13.88;6.38;;;3.40;80.20;;;2.35;67.92;96483.66;5016137;28;20278;-85
2022/01/18 06:59:13;;;;;;;15.20;6.55;;;3.40;80.20;;;2.39;67.72;96487.69;5017765;28;20197;-85
2022/01/18 07:01:41;;;;;;;23.02;7.65;;;3.50;80.30;;;2.30;68.21;96489.13;5031777;28;20315;-85
2022/01/18 07:04:08;;;;;;;14.63;7.70;;;3.40;80.30;;;2.37;67.83;96486.97;5015787;28;20236;-86
2022/01/18 07:06:36;;;;;;;17.45;8.05;;;3.40;80.40;;;2.38;68.23;96489.47;5020315;28;20220;-86
2022/01/18 07:09:03;;;;;;;17.17;7.10;;;3.40;80.40;;;2.41;68.02;96488.44;5051534;28;20253;-86
2022/01/18 07:11:32;;;;;;;16.92;6.60;;;3.40;80.40;;;2.46;68.00;96501.06;5049092;28;20247;-85
2022/01/18 07:14:00;;;;;;;16.08;7.35;;;3.40;80.50;;;2.44;68.41;96490.81;5051515;28;20220;-85
2022/01/18 07:16:28;;;;;;;16.30;6.88;;;3.40;80.60;;;2.49;67.87;96493.09;5035500;28;20239;-86
2022/01/18 07:18:55;;;;;;;19.02;7.40;;;3.40;80.60;;;2.51;68.18;96504.19;5047389;28;20582;-85
2022/01/18 07:21:22;;;;;;;14.65;7.78;;;3.40;80.50;;;2.53;68.17;96502.31;5051747;28;20231;-85
2022/01/18 07:23:52;;;;;;;14.77;6.65;;;3.50;80.60;;;2.53;68.36;96507.50;5049039;28;20680;-85
2022/01/18 07:26:19;;;;;;;16.48;7.28;;;3.50;80.60;;;2.46;68.05;96495.91;5050891;28;20212;-84
2022/01/18 07:28:47;;;;;;;16.33;6.00;;;3.50;80.60;;;2.59;68.08;96501.06;5039297;28;20204;-84
2022/01/18 07:31:14;;;;;;;16.38;6.00;;;3.50;80.60;;;2.60;68.34;96503.56;5035310;28;20226;-85
2022/01/18 07:33:41;;;;;;;22.67;6.85;;;3.50;80.70;;;2.63;68.30;96502.53;5035255;28;20316;-85
2022/01/18 07:36:09;;;;;;;19.38;6.88;;;3.60;80.70;;;2.63;67.78;96508.53;5050208;28;20322;-85
2022/01/18 07:38:36;;;;;;;13.07;6.15;;;3.60;80.60;;;2.69;67.88;96520.25;5037745;28;20232;-85
2022/01/18 07:41:05;;;;;;;14.02;5.75;;;3.60;80.60;;;2.74;68.09;96522.53;5038544;28;20258;-85
2022/01/18 07:43:32;;;;;;;13.77;5.43;;;3.70;80.70;;;2.71;68.22;96521.81;5054141;28;20231;-86
2022/01/18 07:45:59;;;;;;;17.15;5.70;;;3.70;80.60;;;2.64;67.89;96514.56;5037510;28;20231;-84
2022/01/18 07:48:26;;;;;;;14.68;5.60;;;3.70;80.60;;;2.72;68.10;96531.25;5055025;28;20216;-85
2022/01/18 07:50:55;;;;;;;16.75;5.82;;;3.70;80.60;;;2.73;67.88;96539.84;5051239;28;20274;-83
2022/01/18 07:53:22;;;;;;;11.77;5.30;;;3.70;80.50;;;2.74;67.64;96533.72;5037888;28;20228;-85
2022/01/18 07:55:49;;;;;;;19.38;5.40;;;3.70;80.40;;;2.69;67.48;96520.25;5048107;28;20263;-84
2022/01/18 07:58:18;;;;;;;16.95;4.97;;;3.70;80.20;;;2.70;67.48;96532.28;5033375;28;20192;-84
2022/01/18 08:00:47;;;;;;;18.13;5.60;;;3.80;80.10;;;2.65;67.59;96518.78;5021921;28;20277;-85
2022/01/18 08:03:16;;;;;;;12.23;4.78;;;3.70;80.00;;;2.59;67.59;96532.16;5020797;28;20196;-84
2022/01/18 08:05:45;;;;;;;15.18;5.15;;;3.70;80.80;;;2.62;67.63;96519.81;5036366;28;20226;-82
2022/01/18 08:08:12;;;;;;;11.45;4.93;;;3.70;80.10;;;2.58;67.89;96520.16;5038579;28;20295;-83
2022/01/18 08:10:39;;;;;;;11.25;5.10;;;3.70;80.30;;;2.65;68.02;96522.22;5034384;28;20220;-84
2022/01/18 08:13:07;;;;;;;18.02;5.70;;;3.70;80.30;;;2.66;67.60;96521.28;5002174;28;20201;-85
2022/01/18 08:15:39;;;;;;;17.33;5.00;;;3.70;80.20;;;2.67;67.48;96527.28;5026869;28;20215;-84
2022/01/18 08:18:13;;;;;;;13.77;4.60;;;3.60;80.00;;;2.66;67.47;96523.03;5038438;28;20466;-84
2022/01/18 08:20:41;;;;;;;18.13;5.13;;;3.70;80.00;;;2.64;67.30;96520.56;5021359;28;20273;-85
2022/01/18 08:23:08;;;;;;;16.13;4.72;;;3.70;80.00;;;2.63;67.29;96524.06;5033473;28;20283;-86
2022/01/18 08:25:35;;;;;;;10.23;4.25;;;3.60;80.00;;;2.64;67.36;96522.34;5033367;28;20232;-84
2022/01/18 08:28:03;;;;;;;13.60;4.15;;;3.60;80.00;;;2.67;67.31;96519.53;5051088;28;20569;-85
2022/01/18 08:30:30;;;;;;;13.57;4.55;;;3.60;80.10;;;2.74;67.69;96514.78;5033929;28;20709;-84
2022/01/18 08:32:58;;;;;;;15.07;4.18;;;3.60;80.50;;;2.87;68.05;96528.56;5035954;28;20720;-84
2022/01/18 08:35:26;;;;;;;11.68;4.50;;;3.60;80.80;;;2.97;67.86;96528.75;5037379;28;20604;-83
2022/01/18 08:37:53;;;;;;;13.75;5.30;;;3.70;81.00;;;3.06;68.16;96533.31;5053989;28;20265;-83
2022/01/18 08:40:21;;;;;;;15.48;4.65;;;3.80;81.10;;;3.12;67.78;96537.25;5037336;28;20204;-83
2022/01/18 08:42:48;;;;;;;15.52;4.70;;;3.80;81.00;;;3.18;67.95;96548.00;5038865;28;20196;-83
2022/01/18 08:45:15;;;;;;;19.50;5.20;;;3.90;81.00;;;3.21;67.43;96549.59;5052925;28;20215;-84
2022/01/18 08:47:48;;;;;;;13.50;5.80;;;4.00;80.90;;;3.23;67.61;96554.66;5053374;28;20231;-83
2022/01/18 08:50:19;;;;;;;16.42;5.63;;;4.00;80.80;;;3.28;67.76;96555.16;5052892;28;20251;-82
2022/01/18 08:52:51;;;;;;;18.45;5.80;;;4.00;80.80;;;3.26;67.78;96544.06;5019866;28;20847;-83
2022/01/18 08:55:20;;;;;;;15.57;4.82;;;4.20;81.00;;;3.39;67.72;96557.84;5049882;28;20216;-82
2022/01/18 08:57:48;;;;;;;12.05;4.85;;;4.10;80.70;;;3.44;67.60;96548.00;5020290;28;20747;-82
2022/01/18 09:00:17;;;;;;;15.48;4.22;;;4.20;80.80;;;3.55;67.64;96549.00;5032839;28;20315;-83
2022/01/18 09:02:45;;;;;;;16.30;4.72;;;4.20;80.70;;;3.63;67.28;96547.53;5041199;28;20669;-82
2022/01/18 09:05:12;;;;;;;16.75;5.20;;;4.30;80.90;;;3.67;67.44;96543.78;5031347;28;20207;-82
2022/01/18 09:07:40;;;;;;;15.82;4.43;;;4.30;80.90;;;3.75;67.08;96566.59;5036554;28;20200;-83
2022/01/18 09:10:10;;;;;;;20.10;4.85;;;4.40;80.80;;;3.79;67.10;96567.22;5035468;28;20242;-82
2022/01/18 09:12:38;;;;;;;17.98;5.07;;;4.40;80.70;;;3.77;67.22;96562.13;5049330;28;20629;-82
2022/01/18 09:15:08;;;;;;;13.15;4.80;;;4.50;80.50;;;3.81;67.06;96563.56;5065758;28;20232;-82
2022/01/18 09:17:38;;;;;;;15.73;5.78;;;4.50;80.50;;;3.78;66.96;96549.97;5054376;28;20196;-82
2022/01/18 09:20:10;;;;;;;13.40;4.63;;;4.60;80.60;;;3.89;66.71;96573.41;5056498;28;20216;-82
2022/01/18 09:22:41;;;;;;;15.65;5.18;;;4.60;80.40;;;3.92;66.83;96577.53;5015720;28;20246;-82
2022/01/18 09:25:16;;;;;;;13.55;4.38;;;4.60;80.30;;;3.96;67.15;96586.78;5016151;28;20263;-81
2022/01/18 09:27:44;;;;;;;18.38;5.25;;;4.70;80.40;;;4.03;66.81;96584.56;5030673;28;20299;-82
2022/01/18 09:30:13;;;;;;;17.48;5.40;;;4.70;80.60;;;4.06;66.68;96577.38;5051764;28;20218;-81
2022/01/18 09:32:43;;;;;;;9.70;4.20;;;4.70;80.60;;;4.16;66.94;96580.16;5051568;28;20192;-81
2022/01/18 09:35:11;;;;;;;19.83;4.90;;;4.80;80.70;;;4.25;67.22;96582.09;5032996;28;20224;-81
2022/01/18 09:37:39;;;;;;;17.70;4.75;;;4.90;80.80;;;4.32;66.99;96579.88;5035080;28;20207;-82
2022/01/18 09:40:08;;;;;;;16.85;5.30;;;4.90;80.70;;;4.31;66.53;96591.22;5031689;28;20757;-80
2022/01/18 09:42:39;;;;;;;11.95;4.03;;;4.90;80.20;;;4.24;66.60;96569.22;5017773;28;20232;-80
2022/01/18 09:45:16;;;;;;;17.75;5.35;;;5.00;80.30;;;4.37;66.78;96575.19;5051171;28;20211;-81
2022/01/18 09:47:48;;;;;;;14.73;4.45;;;5.00;80.40;;;4.40;66.67;96576.72;5051985;28;20238;-81
2022/01/18 09:50:22;;;;;;;13.65;4.60;;;5.10;80.30;;;4.49;66.80;96576.88;5050927;28;20208;-81
2022/01/18 09:52:55;;;;;;;14.95;5.10;;;5.10;80.60;;;4.54;66.57;96589.53;5031257;28;20210;-82
2022/01/18 09:55:25;;;;;;;17.63;4.88;;;5.10;80.60;;;4.58;66.94;96570.16;5048021;28;20305;-81
2022/01/18 09:57:54;;;;;;;14.35;5.07;;;5.30;80.70;;;4.71;66.61;96572.72;5047610;28;20607;-81
2022/01/18 10:00:27;;;;;;;13.75;4.30;;;5.30;80.20;;;4.79;66.57;96569.53;5031099;28;20294;-81
2022/01/18 10:02:55;;;;;;;14.05;4.63;;;5.30;80.30;;;4.73;66.29;96570.81;5017930;28;20196;-82
2022/01/18 10:05:30;;;;;;;15.55;4.55;;;5.40;80.40;;;4.79;66.17;96577.31;5051439;28;20208;-82
2022/01/18 10:08:08;;;;;;;19.25;4.75;;;5.40;80.10;;;4.80;65.91;96577.19;5031528;28;20204;-81
2022/01/18 10:11:16;;;;;;;22.48;4.95;;;5.50;79.70;;;4.73;65.57;96570.81;5015409;28;20239;-82
2022/01/18 10:13:49;;;;;;;13.43;4.10;;;5.40;79.40;;;4.61;65.35;96572.56;5051389;28;20192;-81
2022/01/18 10:16:21;;;;;;;16.10;4.75;;;5.50;79.20;;;4.48;65.03;96574.41;5051796;28;20231;-82
2022/01/18 10:18:53;;;;;;;22.25;5.05;;;5.40;79.50;;;4.40;64.60;96569.75;5035614;28;20212;-81
2022/01/18 10:21:35;;;;;;;14.77;4.28;;;5.30;78.70;;;4.25;65.05;96568.28;5035990;28;20220;-82
2022/01/18 10:24:17;;;;;;;16.98;4.28;;;5.20;78.40;;;4.21;65.48;96600.59;5051560;28;20180;-81
2022/01/18 10:26:47;;;;;;;15.30;4.55;;;5.20;78.70;;;4.12;65.38;96565.75;5035333;28;20223;-82
2022/01/18 10:29:19;;;;;;;19.00;4.60;;;5.20;78.70;;;4.04;65.33;96560.25;5046854;28;20200;-82
2022/01/18 10:37:35;;;;;;;12.23;4.38;;;4.90;78.40;;;3.85;65.48;96549.41;5042408;28;20204;-82
2022/01/18 10:40:16;;;;;;;13.77;3.90;;;4.90;78.40;;;3.82;65.51;96556.59;5048588;28;20244;-82
2022/01/18 10:42:52;;;;;;;13.75;4.32;;;4.80;78.50;;;3.78;65.28;96563.78;5047572;28;20193;-81
2022/01/18 10:45:31;;;;;;;15.38;4.30;;;4.80;78.60;;;3.74;65.58;96566.72;5047223;28;20252;-82
2022/01/18 10:48:15;;;;;;;16.42;4.63;;;4.70;78.70;;;3.67;65.69;96574.94;5047088;28;20203;-81
2022/01/18 10:50:46;;;;;;;13.75;3.78;;;4.70;78.50;;;3.63;65.87;96578.66;5043178;28;20246;-82
2022/01/18 10:53:21;;;;;;;16.95;4.32;;;4.70;78.70;;;3.64;65.87;96582.91;5057104;28;20195;-82
2022/01/18 10:56:11;;;;;;;15.45;4.60;;;4.60;78.70;;;3.68;66.42;96576.56;5031020;28;20290;-82
2022/01/18 10:58:54;;;;;;;15.07;4.82;;;4.60;79.20;;;3.74;66.75;96566.72;5050421;28;20610;-82
2022/01/18 11:01:23;;;;;;;14.25;3.97;;;4.70;79.20;;;3.73;66.75;96557.28;5050966;28;20614;-83
2022/01/18 11:04:14;;;;;;;18.05;3.88;;;4.70;79.70;;;3.97;66.56;96575.47;5037723;28;20199;-83
2022/01/18 11:07:00;;;;;;;10.70;3.55;;;4.70;79.30;;;4.09;66.55;96584.97;5030888;28;20217;-82
2022/01/18 11:09:27;;;;;;;16.23;3.85;;;4.80;79.40;;;4.12;66.14;96583.91;5054546;28;20287;-82
2022/01/18 11:11:54;;;;;;;16.63;4.28;;;4.80;79.70;;;4.14;65.87;96582.88;5055058;28;20719;-81
2022/01/18 11:14:23;;;;;;;17.95;4.00;;;4.90;79.50;;;4.08;66.03;96565.13;5040321;28;20282;-81
2022/01/18 11:16:52;;;;;;;19.80;4.43;;;4.90;79.50;;;4.20;66.07;96572.97;5039624;28;20213;-82
2022/01/18 11:21:57;;;;;;;13.73;4.25;;;5.00;79.60;;;4.15;65.66;96578.50;5050409;28;20243;-82
2022/01/18 11:24:28;;;;;;;15.50;4.18;;;5.00;79.10;;;4.10;65.71;96589.22;5038250;28;20238;-83
2022/01/18 11:26:57;;;;;;;14.55;4.30;;;5.00;78.90;;;4.06;66.25;96595.56;5075090;28;20272;-83
2022/01/18 11:29:26;;;;;;;13.63;4.05;;;5.00;79.10;;;4.08;66.05;96601.47;5052629;28;20315;-81
2022/01/18 11:31:55;;;;;;;16.25;4.88;;;5.00;79.30;;;4.10;66.03;96597.03;5041806;28;20313;-83
2022/01/18 11:34:29;;;;;;;11.82;3.90;;;5.00;79.20;;;4.12;66.39;96592.53;5072995;28;20318;-82
2022/01/18 11:37:09;;;;;;;12.13;4.20;;;5.00;79.10;;;4.08;65.74;96580.72;5048137;28;20224;-82
2022/01/18 11:39:36;;;;;;;13.18;4.22;;;4.90;79.00;;;4.14;66.12;96579.44;5048917;28;20215;-83
2022/01/18 11:42:11;;;;;;;20.80;4.38;;;5.00;79.10;;;4.12;66.03;96578.72;5054694;28;20282;-83
2022/01/18 11:44:41;;;;;;;14.07;4.10;;;4.90;78.90;;;4.11;66.00;96579.66;5034871;28;20267;-83
2022/01/18 11:47:08;;;;;;;14.55;4.30;;;5.00;79.20;;;4.13;65.93;96570.81;5025842;28;20325;-82
2022/01/18 11:49:44;;;;;;;13.82;4.47;;;5.00;79.10;;;4.16;65.71;96569.75;5035975;28;20524;-82
2022/01/18 11:52:36;;;;;;;13.15;4.35;;;5.00;79.10;;;4.12;65.32;96571.75;5051439;28;20185;-82
2022/01/18 11:55:04;;;;;;;10.32;3.88;;;5.00;77.80;;;4.07;65.45;96575.63;5035779;28;20225;-82